Time;durP1;ratioP1;P1;durP2;ratioP2;P2;SDS_P1;SDS_P2;PMS_P1;PMS_P2;Temp;Humidity;BMP_temperature;BMP_pressure;BME280_temperature;BME280_humidity;BME280_pressure;Samples;Min_cycle;Max_cycle;Signal;HPM_P1;HPM_P2
2022/11/28 00:01:08;;;;;;;13.07;8.33;;;1.40;99.90;;;;;;6302533;22;20419;-74
2022/11/28 00:03:36;;;;;;;16.63;9.70;;;0.80;99.90;;;;;;6302329;22;20494;-74
2022/11/28 00:06:04;;;;;;;14.40;9.23;;;0.70;99.90;;;;;;6302379;22;20573;-74
2022/11/28 00:08:30;;;;;;;13.23;9.00;;;2.60;99.90;;;;;;6302455;22;20491;-75
2022/11/28 00:10:57;;;;;;;14.70;9.77;;;1.40;99.90;;;;;;6302321;22;20479;-74
2022/11/28 00:13:24;;;;;;;17.17;9.57;;;2.00;99.90;;;;;;6301521;22;20475;-74
2022/11/28 00:15:55;;;;;;;17.40;9.57;;;1.40;99.90;;;;;;6302373;22;20743;-75
2022/11/28 00:18:22;;;;;;;14.70;8.87;;;2.60;99.90;;;;;;6303254;22;20425;-74
2022/11/28 00:20:58;;;;;;;14.07;9.10;;;1.40;99.90;;;;;;6302461;22;20419;-75
2022/11/28 00:23:25;;;;;;;13.33;10.13;;;1.30;99.90;;;;;;6301827;22;20471;-74
2022/11/28 00:25:58;;;;;;;14.20;8.53;;;1.60;99.90;;;;;;6302115;22;20446;-75
2022/11/28 00:28:25;;;;;;;15.27;9.53;;;1.40;99.90;;;;;;6302058;22;20397;-74
2022/11/28 00:30:52;;;;;;;11.67;10.20;;;2.40;99.90;;;;;;6302363;22;20483;-74
2022/11/28 00:33:19;;;;;;;15.67;9.67;;;1.30;99.90;;;;;;6301529;22;20486;-74
2022/11/28 00:35:46;;;;;;;14.17;9.50;;;1.90;99.90;;;;;;6302036;22;20484;-75
2022/11/28 00:38:15;;;;;;;11.97;8.10;;;1.30;99.90;;;;;;6302968;22;20459;-74
2022/11/28 00:40:42;;;;;;;16.00;9.40;;;1.10;99.90;;;;;;6275760;22;20446;-75
2022/11/28 00:43:10;;;;;;;18.87;10.80;;;1.20;99.90;;;;;;6302744;22;20979;-74
2022/11/28 00:45:38;;;;;;;19.20;10.33;;;0.40;99.90;;;;;;6303300;22;20409;-74
2022/11/28 00:48:05;;;;;;;18.70;12.60;;;1.10;99.90;;;;;;6302507;22;20436;-74
2022/11/28 00:50:32;;;;;;;13.13;9.10;;;1.10;99.90;;;;;;6300955;22;20971;-74
2022/11/28 00:52:59;;;;;;;15.57;10.30;;;0.60;99.90;;;;;;6302447;22;20494;-74
2022/11/28 00:55:28;;;;;;;12.20;8.17;;;1.50;99.90;;;;;;6302068;22;20436;-74
2022/11/28 00:57:57;;;;;;;16.07;9.27;;;1.30;99.90;;;;;;6301413;22;20703;-74
2022/11/28 01:00:24;;;;;;;14.63;9.37;;;1.30;99.90;;;;;;6301651;22;20411;-74
2022/11/28 01:02:51;;;;;;;16.77;9.87;;;1.30;99.90;;;;;;6302083;22;20408;-74
2022/11/28 01:05:18;;;;;;;15.17;9.70;;;1.30;99.90;;;;;;6301811;22;20412;-74
2022/11/28 01:07:45;;;;;;;14.30;9.57;;;1.40;99.90;;;;;;6300892;22;20443;-74
2022/11/28 01:10:12;;;;;;;18.93;10.60;;;1.40;99.90;;;;;;6302071;22;20428;-75
2022/11/28 01:12:40;;;;;;;14.67;9.30;;;1.40;99.90;;;;;;6301110;22;20458;-74
2022/11/28 01:15:10;;;;;;;14.73;8.23;;;1.40;99.90;;;;;;6301705;22;20440;-74
2022/11/28 01:17:37;;;;;;;16.60;9.67;;;1.40;99.90;;;;;;6302242;22;20457;-74
2022/11/28 01:20:05;;;;;;;14.47;10.07;;;1.40;99.90;;;;;;6301373;22;20412;-74
2022/11/28 01:22:32;;;;;;;12.67;8.90;;;1.40;99.90;;;;;;6301857;22;20412;-74
2022/11/28 01:24:59;;;;;;;14.73;9.33;;;0.90;99.90;;;;;;6301560;22;20447;-74
2022/11/28 01:27:26;;;;;;;14.27;10.00;;;1.40;99.90;;;;;;6301784;22;20819;-75
2022/11/28 01:29:56;;;;;;;15.27;9.40;;;1.40;99.90;;;;;;6302803;22;20411;-75
2022/11/28 01:32:23;;;;;;;14.63;8.90;;;1.30;99.90;;;;;;6304532;22;20474;-76
2022/11/28 01:34:49;;;;;;;14.53;8.97;;;1.70;99.90;;;;;;6304522;22;20436;-76
2022/11/28 01:37:16;;;;;;;14.90;8.73;;;1.30;99.90;;;;;;6304740;22;20415;-76
2022/11/28 01:39:43;;;;;;;16.33;9.43;;;1.60;99.90;;;;;;6303804;22;20412;-75
2022/11/28 01:42:16;;;;;;;16.30;8.60;;;1.20;99.90;;;;;;6302503;22;20405;-76
2022/11/28 01:45:14;;;;;;;13.70;9.20;;;0.70;99.90;;;;;;6302860;22;20483;-75
2022/11/28 01:47:49;;;;;;;14.23;9.10;;;1.30;99.90;;;;;;6301402;22;20782;-74
2022/11/28 01:50:16;;;;;;;16.83;10.10;;;1.40;99.90;;;;;;6301537;22;20390;-74
2022/11/28 01:52:50;;;;;;;14.93;9.07;;;1.30;99.90;;;;;;6301491;22;20475;-74
2022/11/28 01:55:21;;;;;;;14.47;8.23;;;1.00;99.90;;;;;;6301338;22;20438;-74
2022/11/28 01:57:47;;;;;;;17.47;10.00;;;1.30;99.90;;;;;;6300980;22;20479;-74
2022/11/28 02:00:19;;;;;;;13.60;9.33;;;1.80;99.90;;;;;;6301377;22;20408;-74
2022/11/28 02:02:49;;;;;;;16.10;9.33;;;1.30;99.90;;;;;;6300786;22;20430;-74
2022/11/28 02:05:18;;;;;;;17.23;10.93;;;0.90;99.90;;;;;;6301149;22;20793;-74
2022/11/28 02:07:46;;;;;;;18.60;11.90;;;2.10;99.90;;;;;;6302013;22;20413;-74
2022/11/28 02:10:16;;;;;;;21.13;12.43;;;2.40;99.90;;;;;;6301888;22;20669;-74
2022/11/28 02:13:09;;;;;;;17.70;10.77;;;0.90;99.90;;;;;;6301379;22;20490;-74
2022/11/28 02:15:54;;;;;;;20.80;10.57;;;0.90;99.90;;;;;;6302526;22;20460;-74
2022/11/28 02:18:36;;;;;;;20.10;10.57;;;0.90;99.90;;;;;;6301657;22;20798;-76
2022/11/28 02:21:21;;;;;;;17.73;10.50;;;1.00;99.90;;;;;;6301907;22;20751;-75
2022/11/28 02:24:30;;;;;;;14.40;10.90;;;1.10;99.90;;;;;;6301903;22;20438;-76
2022/11/28 02:30:15;;;;;;;17.50;10.63;;;1.20;99.90;;;;;;6300300;22;20408;-76
2022/11/28 02:32:54;;;;;;;22.20;10.10;;;1.20;99.90;;;;;;6301529;22;20470;-76
2022/11/28 02:35:26;;;;;;;13.63;9.90;;;1.20;99.90;;;;;;6301530;22;20928;-75
2022/11/28 02:38:02;;;;;;;17.60;10.30;;;1.30;99.90;;;;;;6301788;22;20643;-76
2022/11/28 02:40:37;;;;;;;19.40;9.77;;;1.40;99.90;;;;;;6301757;22;20921;-75
2022/11/28 02:43:11;;;;;;;11.57;8.57;;;1.30;99.90;;;;;;6301755;22;20734;-76
2022/11/28 02:45:46;;;;;;;11.63;8.40;;;2.00;99.90;;;;;;6301946;22;20396;-75
2022/11/28 02:48:24;;;;;;;21.13;10.47;;;1.60;99.90;;;;;;6302264;22;20429;-76
2022/11/28 02:50:59;;;;;;;19.03;10.17;;;1.80;99.90;;;;;;6301221;22;20465;-75
2022/11/28 02:53:30;;;;;;;12.63;9.23;;;2.10;99.90;;;;;;6301383;22;20432;-76
2022/11/28 02:55:59;;;;;;;13.80;10.80;;;1.70;99.90;;;;;;6301221;22;20447;-75
2022/11/28 02:58:25;;;;;;;16.13;9.83;;;1.50;99.90;;;;;;6301207;22;20432;-76
2022/11/28 03:00:54;;;;;;;12.73;9.03;;;0.90;99.90;;;;;;6301428;22;20440;-76
2022/11/28 03:03:53;;;;;;;13.93;9.23;;;2.10;99.90;;;;;;6300954;22;20408;-75
2022/11/28 03:06:32;;;;;;;14.00;9.47;;;1.60;99.90;;;;;;6301291;22;20752;-75
2022/11/28 03:09:22;;;;;;;15.20;9.57;;;1.60;99.90;;;;;;6300971;22;20898;-75
2022/11/28 03:11:58;;;;;;;12.83;8.30;;;1.50;99.90;;;;;;6276032;22;20927;-76
2022/11/28 03:14:40;;;;;;;14.53;10.90;;;2.00;99.90;;;;;;6303260;22;20406;-76
2022/11/28 03:17:14;;;;;;;13.20;8.80;;;1.40;99.90;;;;;;6304176;22;20401;-75
2022/11/28 03:19:50;;;;;;;13.40;8.13;;;1.30;99.90;;;;;;6302945;22;20929;-76
2022/11/28 03:22:26;;;;;;;14.67;8.83;;;1.50;99.90;;;;;;6302835;22;20766;-76
2022/11/28 03:25:00;;;;;;;14.40;10.97;;;1.50;99.90;;;;;;6302967;22;20970;-76
2022/11/28 03:27:32;;;;;;;14.73;8.20;;;1.40;99.90;;;;;;6302717;22;20431;-76
2022/11/28 03:30:16;;;;;;;16.10;9.83;;;1.40;99.90;;;;;;6302772;22;20873;-75
2022/11/28 03:32:45;;;;;;;16.17;10.07;;;1.30;99.90;;;;;;6302460;22;20774;-76
2022/11/28 03:35:17;;;;;;;18.93;10.60;;;1.30;99.90;;;;;;6303907;22;20392;-76
2022/11/28 03:37:49;;;;;;;12.53;8.13;;;1.70;99.90;;;;;;6306799;22;20721;-76
2022/11/28 03:40:22;;;;;;;16.43;9.80;;;1.60;99.90;;;;;;6304367;22;20396;-75
2022/11/28 03:42:57;;;;;;;13.63;9.77;;;1.50;99.90;;;;;;6304071;22;20800;-77
2022/11/28 03:45:27;;;;;;;15.23;10.17;;;1.00;99.90;;;;;;6307255;22;20442;-75
2022/11/28 03:47:59;;;;;;;17.60;10.73;;;1.40;99.90;;;;;;6310763;22;20408;-76
2022/11/28 03:50:32;;;;;;;14.27;9.93;;;1.20;99.90;;;;;;6307970;22;20424;-76
2022/11/28 03:53:07;;;;;;;15.10;11.30;;;1.40;99.90;;;;;;6306449;22;20500;-76
2022/11/28 03:55:40;;;;;;;16.40;9.30;;;1.50;99.90;;;;;;6305401;22;20431;-76
2022/11/28 03:58:12;;;;;;;16.43;9.97;;;1.40;99.90;;;;;;6308537;22;20424;-75
2022/11/28 04:00:51;;;;;;;12.50;9.00;;;1.00;99.90;;;;;;6308271;22;20764;-76
2022/11/28 04:03:26;;;;;;;15.90;9.50;;;1.40;99.90;;;;;;6308647;22;20422;-76
2022/11/28 04:06:02;;;;;;;15.33;9.87;;;1.50;99.90;;;;;;6303330;22;20663;-75
2022/11/28 04:08:32;;;;;;;18.13;10.30;;;1.40;99.90;;;;;;6304443;22;20388;-79
2022/11/28 04:11:07;;;;;;;18.73;10.23;;;1.40;99.90;;;;;;6304635;22;20432;-76
2022/11/28 04:13:41;;;;;;;17.70;9.93;;;1.40;99.90;;;;;;6301364;22;20502;-77
2022/11/28 04:16:13;;;;;;;19.23;10.33;;;1.90;99.90;;;;;;6301535;22;20465;-76
2022/11/28 04:18:49;;;;;;;16.93;10.43;;;1.30;99.90;;;;;;6301445;22;20469;-77
2022/11/28 04:21:29;;;;;;;17.40;10.43;;;1.50;99.90;;;;;;6300960;22;20446;-76
2022/11/28 04:24:01;;;;;;;15.67;10.67;;;1.50;99.90;;;;;;6301087;22;20486;-76
2022/11/28 04:26:32;;;;;;;16.23;9.33;;;1.50;99.90;;;;;;6302287;22;20423;-76
2022/11/28 04:29:02;;;;;;;14.90;9.10;;;1.50;99.90;;;;;;6301985;22;20397;-76
2022/11/28 04:31:35;;;;;;;14.50;8.00;;;2.70;99.90;;;;;;6301255;22;20446;-76
2022/11/28 04:34:06;;;;;;;15.17;8.87;;;2.60;99.90;;;;;;6302726;22;20447;-79
2022/11/28 04:39:14;;;;;;;14.23;8.50;;;1.40;99.90;;;;;;6244059;22;20546;-74
2022/11/28 04:41:46;;;;;;;21.17;12.17;;;1.40;99.90;;;;;;6270073;22;20490;-76
2022/11/28 04:44:19;;;;;;;18.00;10.63;;;1.50;99.90;;;;;;6271174;22;20457;-75
2022/11/28 04:46:51;;;;;;;19.60;10.80;;;1.00;99.90;;;;;;6270530;22;20945;-74
2022/11/28 04:49:25;;;;;;;18.30;9.93;;;0.90;99.90;;;;;;6271279;22;20510;-75
2022/11/28 04:51:59;;;;;;;18.00;10.57;;;1.10;99.90;;;;;;6271150;22;20397;-74
2022/11/28 04:54:34;;;;;;;20.17;10.97;;;0.70;99.90;;;;;;6269528;22;20920;-74
2022/11/28 04:57:07;;;;;;;17.60;9.33;;;1.30;99.90;;;;;;6270792;22;20882;-73
2022/11/28 04:59:34;;;;;;;17.23;10.20;;;1.10;99.90;;;;;;6270983;22;20723;-75
2022/11/28 05:02:10;;;;;;;19.13;10.20;;;1.30;99.90;;;;;;6270040;22;20405;-74
2022/11/28 05:04:37;;;;;;;21.07;10.80;;;1.40;99.90;;;;;;6270715;22;20753;-73
2022/11/28 05:07:06;;;;;;;13.27;8.90;;;1.50;99.90;;;;;;6270464;22;20409;-74
2022/11/28 05:09:35;;;;;;;16.00;9.93;;;1.90;99.90;;;;;;6262767;22;20457;-73
2022/11/28 05:12:02;;;;;;;23.30;13.30;;;2.10;99.90;;;;;;6240373;23;20508;-74
2022/11/28 05:14:29;;;;;;;19.20;10.73;;;1.20;99.90;;;;;;6239792;23;20963;-74
2022/11/28 05:17:02;;;;;;;20.77;12.00;;;1.60;99.90;;;;;;6241379;23;20929;-75
2022/11/28 05:19:29;;;;;;;18.70;13.47;;;1.20;99.90;;;;;;6240582;23;20780;-77
2022/11/28 05:21:56;;;;;;;22.53;10.50;;;1.00;99.90;;;;;;6240659;23;20408;-75
2022/11/28 05:24:23;;;;;;;24.47;12.80;;;1.00;99.90;;;;;;6240573;23;20421;-76
2022/11/28 05:26:51;;;;;;;22.33;13.23;;;1.30;99.90;;;;;;6240874;23;20788;-76
2022/11/28 05:29:20;;;;;;;21.60;12.70;;;1.10;99.90;;;;;;6242229;23;20409;-76
2022/11/28 05:31:47;;;;;;;21.27;12.50;;;0.70;99.90;;;;;;6241114;23;20911;-76
2022/11/28 05:34:14;;;;;;;21.57;11.03;;;1.10;99.90;;;;;;6243775;23;20413;-76
2022/11/28 05:36:40;;;;;;;18.87;12.50;;;1.30;99.90;;;;;;6242015;23;20793;-75
2022/11/28 05:39:08;;;;;;;19.10;12.30;;;1.70;99.90;;;;;;6242395;23;20852;-76
2022/11/28 05:41:35;;;;;;;21.93;12.80;;;1.10;99.90;;;;;;6245096;23;20414;-78
2022/11/28 05:44:24;;;;;;;24.13;12.40;;;1.10;99.90;;;;;;6248009;23;20425;-79
2022/11/28 05:46:51;;;;;;;21.30;11.60;;;1.30;99.90;;;;;;6241146;23;20401;-74
2022/11/28 05:49:20;;;;;;;22.30;12.30;;;0.80;99.90;;;;;;6240200;23;20409;-77
2022/11/28 05:51:48;;;;;;;22.67;12.80;;;0.90;99.90;;;;;;6240686;23;20911;-76
2022/11/28 05:54:15;;;;;;;20.93;12.47;;;1.30;99.90;;;;;;6240294;23;21001;-76
2022/11/28 05:56:42;;;;;;;19.90;12.80;;;1.00;99.90;;;;;;6240644;23;20898;-75
2022/11/28 05:59:09;;;;;;;23.87;13.17;;;0.70;99.90;;;;;;6239248;23;20406;-75
2022/11/28 06:01:37;;;;;;;17.50;11.63;;;0.70;99.90;;;;;;6239153;23;20831;-74
2022/11/28 06:04:09;;;;;;;21.73;13.13;;;1.10;99.90;;;;;;6240999;23;20399;-76
2022/11/28 06:06:37;;;;;;;21.87;11.30;;;1.20;99.90;;;;;;6241405;23;20719;-77
2022/11/28 06:09:05;;;;;;;24.40;12.67;;;0.90;99.90;;;;;;6242397;22;20438;-75
2022/11/28 06:11:34;;;;;;;19.40;12.23;;;1.30;99.90;;;;;;6243547;23;20440;-75
2022/11/28 06:14:02;;;;;;;23.43;12.83;;;1.10;99.90;;;;;;6244747;23;20465;-78
2022/11/28 06:16:34;;;;;;;21.57;12.83;;;1.20;99.90;;;;;;6247488;23;20397;-80
2022/11/28 06:19:05;;;;;;;22.63;12.90;;;1.50;99.90;;;;;;6252892;22;20469;-79
2022/11/28 06:21:42;;;;;;;21.70;12.33;;;1.30;99.90;;;;;;6249177;23;20405;-79
2022/11/28 06:24:09;;;;;;;25.83;13.87;;;1.40;99.90;;;;;;6248730;23;20448;-77
2022/11/28 06:26:36;;;;;;;19.13;12.03;;;1.40;99.90;;;;;;6251721;23;20746;-77
2022/11/28 06:29:09;;;;;;;20.13;11.10;;;0.90;99.90;;;;;;6250826;23;20409;-78
2022/11/28 06:31:36;;;;;;;18.97;11.43;;;1.50;99.90;;;;;;6249929;23;20421;-77
2022/11/28 06:34:05;;;;;;;17.63;10.73;;;1.70;99.90;;;;;;6246429;23;20457;-78
2022/11/28 06:36:35;;;;;;;19.27;12.87;;;1.20;99.90;;;;;;6254341;22;20402;-76
2022/11/28 06:39:01;;;;;;;22.20;11.03;;;1.60;99.90;;;;;;6246529;23;20444;-77
2022/11/28 06:41:29;;;;;;;21.20;10.70;;;2.60;99.90;;;;;;6245326;23;20394;-77
2022/11/28 06:46:39;;;;;;;18.27;11.60;;;1.80;99.90;;;;;;6239972;23;20410;-78
2022/11/28 06:49:08;;;;;;;19.77;11.27;;;1.60;99.90;;;;;;6246082;23;20917;-78
2022/11/28 06:51:35;;;;;;;18.53;10.30;;;1.70;99.90;;;;;;6246715;23;20417;-78
2022/11/28 06:54:02;;;;;;;13.90;10.30;;;1.50;99.90;;;;;;6246721;23;21032;-78
2022/11/28 06:56:35;;;;;;;19.23;12.40;;;1.80;99.90;;;;;;6248675;23;20418;-78
2022/11/28 06:59:03;;;;;;;22.17;10.47;;;1.80;99.90;;;;;;6245755;23;20448;-78
2022/11/28 07:01:33;;;;;;;20.10;11.40;;;1.70;99.90;;;;;;6248618;23;20760;-78
2022/11/28 07:04:03;;;;;;;18.87;10.53;;;1.80;99.90;;;;;;6248800;23;20768;-78
2022/11/28 07:06:33;;;;;;;20.93;11.30;;;1.70;99.90;;;;;;6247507;23;20421;-78
2022/11/28 07:09:00;;;;;;;19.73;11.63;;;1.60;99.90;;;;;;6248210;22;20410;-78
2022/11/28 07:11:33;;;;;;;16.50;10.33;;;1.80;99.90;;;;;;6253572;23;20900;-79
2022/11/28 07:14:05;;;;;;;16.23;9.23;;;1.80;99.90;;;;;;6256381;23;20433;-78
2022/11/28 07:16:40;;;;;;;18.60;11.70;;;1.80;99.90;;;;;;6259487;23;20437;-79
2022/11/28 07:19:08;;;;;;;20.57;11.50;;;2.90;99.90;;;;;;6260486;23;20414;-80
2022/11/28 07:21:40;;;;;;;25.87;12.80;;;1.30;99.90;;;;;;6268713;23;20406;-79
2022/11/28 07:24:20;;;;;;;23.27;11.40;;;2.60;99.90;;;;;;6269275;23;20394;-80
2022/11/28 07:27:10;;;;;;;20.77;11.87;;;2.40;99.90;;;;;;6267933;23;20381;-79
2022/11/28 07:29:39;;;;;;;20.03;11.43;;;2.90;99.90;;;;;;6270652;23;20418;-80
2022/11/28 07:32:10;;;;;;;19.87;12.70;;;2.10;99.90;;;;;;6267629;23;20401;-81
2022/11/28 07:34:44;;;;;;;19.90;11.00;;;2.30;99.90;;;;;;6265659;23;20437;-79
2022/11/28 07:37:54;;;;;;;16.80;10.37;;;2.20;99.90;;;;;;6269334;23;20413;-78
2022/11/28 07:43:18;;;;;;;18.50;11.00;;;2.30;99.90;;;;;;6239922;23;20390;-82
2022/11/28 07:51:58;;;;;;;15.23;10.27;;;1.90;99.90;;;;;;6269128;23;20417;-80
2022/11/28 07:58:04;;;;;;;17.80;10.53;;;1.80;99.90;;;;;;6265853;23;20392;-80
2022/11/28 08:16:33;;;;;;;14.00;9.73;;;2.20;99.90;;;;;;6283110;22;20449;-80
2022/11/28 08:24:14;;;;;;;15.30;8.80;;;2.20;99.90;;;;;;6278216;22;20456;-81
2022/11/28 08:29:59;;;;;;;14.40;9.53;;;2.20;99.90;;;;;;6300324;22;20432;-80
2022/11/28 08:32:30;;;;;;;17.30;10.70;;;2.00;99.90;;;;;;6298072;22;20405;-81
2022/11/28 08:34:57;;;;;;;19.13;10.27;;;2.30;99.90;;;;;;6279727;22;20417;-83
2022/11/28 08:37:29;;;;;;;17.93;11.07;;;2.10;99.90;;;;;;6284871;22;20794;-80
2022/11/28 08:39:56;;;;;;;19.40;10.27;;;2.30;99.90;;;;;;6277728;22;20418;-84
2022/11/28 08:42:23;;;;;;;16.27;10.27;;;2.50;99.90;;;;;;6271859;22;20462;-84
2022/11/28 08:44:49;;;;;;;16.63;9.10;;;2.40;99.90;;;;;;6271937;22;20807;-85
2022/11/28 08:47:16;;;;;;;17.60;11.17;;;2.50;99.90;;;;;;6272531;22;20463;-86
2022/11/28 08:49:45;;;;;;;14.50;10.60;;;3.00;99.90;;;;;;6273213;22;20444;-86
2022/11/28 08:52:11;;;;;;;16.33;10.10;;;2.60;99.90;;;;;;6274858;22;20512;-89
2022/11/28 08:54:40;;;;;;;14.10;9.43;;;3.60;99.90;;;;;;6272834;22;20464;-87
2022/11/28 08:57:07;;;;;;;19.03;9.83;;;2.90;99.90;;;;;;6279757;22;20410;-89
2022/11/28 08:59:37;;;;;;;14.70;10.20;;;3.10;99.90;;;;;;6284944;22;20398;-86
2022/11/28 09:02:04;;;;;;;13.90;9.40;;;3.20;99.90;;;;;;6279552;22;20459;-87
2022/11/28 09:04:31;;;;;;;15.20;10.60;;;3.20;99.90;;;;;;6286740;22;20453;-86
2022/11/28 09:07:00;;;;;;;17.87;10.20;;;2.80;99.90;;;;;;6276705;22;20730;-88
2022/11/28 09:09:28;;;;;;;24.27;10.10;;;2.90;99.90;;;;;;6278229;22;20428;-88
2022/11/28 09:11:55;;;;;;;13.87;9.23;;;3.40;99.90;;;;;;6301533;22;20706;-88
2022/11/28 09:14:26;;;;;;;13.93;10.00;;;3.30;99.90;;;;;;6303700;22;21015;-86
2022/11/28 09:16:53;;;;;;;16.10;10.00;;;3.50;99.90;;;;;;6325313;22;20758;-89
2022/11/28 09:19:20;;;;;;;16.80;10.37;;;3.30;99.90;;;;;;6328102;22;20408;-90
2022/11/28 09:21:47;;;;;;;12.50;9.40;;;3.90;99.90;;;;;;6331209;22;20416;-88
2022/11/28 09:24:15;;;;;;;15.63;9.73;;;4.00;99.90;;;;;;6329989;22;20428;-88
2022/11/28 09:26:42;;;;;;;12.60;9.40;;;4.10;99.90;;;;;;6330627;22;20403;-88
2022/11/28 09:29:19;;;;;;;12.50;9.03;;;3.90;99.90;;;;;;6330677;22;20380;-89
2022/11/28 09:31:46;;;;;;;11.13;7.87;;;4.10;99.90;;;;;;6316988;22;20400;-87
2022/11/28 09:34:13;;;;;;;18.87;9.73;;;4.10;99.90;;;;;;6307612;22;20440;-86
2022/11/28 09:36:45;;;;;;;12.77;8.83;;;5.40;99.90;;;;;;6305376;22;20657;-88
2022/11/28 09:39:18;;;;;;;14.20;8.93;;;4.30;99.90;;;;;;6303974;22;20647;-88
2022/11/28 09:42:08;;;;;;;15.70;9.67;;;4.70;99.90;;;;;;6303718;22;20723;-87
2022/11/28 09:44:41;;;;;;;15.47;10.27;;;3.90;99.90;;;;;;6302556;22;20799;-87
2022/11/28 09:47:13;;;;;;;14.03;10.40;;;3.80;99.90;;;;;;6301756;22;20701;-87
2022/11/28 09:49:47;;;;;;;14.13;9.67;;;4.40;99.90;;;;;;6301770;22;20478;-89
2022/11/28 09:52:28;;;;;;;13.20;9.50;;;3.80;99.90;;;;;;6301131;22;20495;-88
2022/11/28 09:55:01;;;;;;;15.30;10.17;;;4.10;99.90;;;;;;6301248;22;20787;-90
2022/11/28 09:57:34;;;;;;;17.50;9.40;;;4.30;99.90;;;;;;6301379;22;20594;-87
2022/11/28 10:00:02;;;;;;;13.87;10.17;;;4.00;99.90;;;;;;6301706;22;20397;-86
2022/11/28 10:02:35;;;;;;;15.77;10.53;;;4.00;99.90;;;;;;6304678;22;20401;-86
2022/11/28 10:05:16;;;;;;;15.23;9.23;;;3.90;99.90;;;;;;6302172;22;20389;-87
2022/11/28 10:07:54;;;;;;;12.03;8.80;;;4.10;99.90;;;;;;6302039;22;20450;-87
2022/11/28 10:10:31;;;;;;;14.50;9.53;;;4.60;99.90;;;;;;6301927;22;21011;-89
2022/11/28 10:13:07;;;;;;;18.13;9.70;;;4.90;99.90;;;;;;6302928;22;20396;-86
2022/11/28 10:15:48;;;;;;;14.37;9.53;;;4.60;99.90;;;;;;6301962;22;20416;-85
2022/11/28 10:18:34;;;;;;;13.50;9.50;;;4.60;99.90;;;;;;6301437;22;20511;-87
2022/11/28 10:21:04;;;;;;;18.13;8.53;;;4.70;99.90;;;;;;6302100;22;20799;-89
2022/11/28 10:23:40;;;;;;;11.97;8.90;;;4.40;99.90;;;;;;6300641;22;20439;-87
2022/11/28 10:26:13;;;;;;;16.20;9.47;;;4.40;99.90;;;;;;6301480;22;20503;-87
2022/11/28 10:28:46;;;;;;;18.30;10.40;;;4.50;99.90;;;;;;6301829;22;20432;-87
2022/11/28 10:31:28;;;;;;;28.33;12.20;;;4.00;99.90;;;;;;6301405;22;20562;-88
2022/11/28 10:34:00;;;;;;;13.77;9.87;;;4.20;99.90;;;;;;6300924;22;21013;-87
2022/11/28 10:36:33;;;;;;;17.63;9.70;;;5.00;99.90;;;;;;6300792;22;21062;-86
2022/11/28 10:39:02;;;;;;;15.53;9.20;;;5.10;99.90;;;;;;6301285;22;20404;-78
2022/11/28 10:41:36;;;;;;;21.20;9.73;;;5.00;99.90;;;;;;6300748;22;20890;-84
2022/11/28 10:44:14;;;;;;;14.57;8.77;;;5.40;99.90;;;;;;6301369;22;20385;-84
2022/11/28 10:46:52;;;;;;;14.87;9.90;;;5.10;99.90;;;;;;6300974;22;20424;-84
2022/11/28 10:49:34;;;;;;;13.87;8.70;;;5.30;99.90;;;;;;6301032;22;20435;-83
2022/11/28 10:52:11;;;;;;;14.40;9.63;;;5.40;99.90;;;;;;6300360;22;20450;-84
2022/11/28 10:54:59;;;;;;;11.63;9.60;;;5.30;99.90;;;;;;6300716;22;20494;-85
2022/11/28 10:57:33;;;;;;;17.17;10.80;;;5.10;99.90;;;;;;6300815;22;20420;-79
2022/11/28 11:00:11;;;;;;;13.50;9.83;;;5.30;99.90;;;;;;6300766;22;20393;-83
2022/11/28 11:02:44;;;;;;;16.63;10.13;;;4.80;99.90;;;;;;6300693;22;20416;-80
2022/11/28 11:05:15;;;;;;;13.90;9.40;;;4.80;99.90;;;;;;6300326;22;20396;-84
2022/11/28 11:07:48;;;;;;;13.33;8.80;;;5.10;99.90;;;;;;6300537;22;20893;-81
2022/11/28 11:10:16;;;;;;;15.70;9.23;;;5.40;99.90;;;;;;6301042;22;20478;-83
2022/11/28 11:12:44;;;;;;;12.40;8.87;;;5.60;99.90;;;;;;6301174;22;20408;-80
2022/11/28 11:15:22;;;;;;;12.30;9.60;;;5.40;99.90;;;;;;6300512;22;20475;-82
2022/11/28 11:17:50;;;;;;;14.47;9.30;;;6.00;99.90;;;;;;6300963;22;20428;-83
2022/11/28 11:20:33;;;;;;;9.97;7.10;;;5.60;99.90;;;;;;6301374;22;20416;-81
2022/11/28 11:23:06;;;;;;;13.93;9.70;;;6.10;99.90;;;;;;6304144;22;20432;-82
2022/11/28 11:25:34;;;;;;;13.23;9.00;;;6.20;99.90;;;;;;6309086;22;20401;-82
2022/11/28 11:28:04;;;;;;;10.53;8.53;;;6.20;99.90;;;;;;6304525;22;20401;-83
2022/11/28 11:30:37;;;;;;;13.67;9.03;;;5.70;99.90;;;;;;6304672;22;20482;-82
2022/11/28 11:33:07;;;;;;;16.30;10.00;;;5.80;99.90;;;;;;6301018;22;20876;-83
2022/11/28 11:35:42;;;;;;;33.83;10.27;;;5.90;99.90;;;;;;6302005;22;21008;-82
2022/11/28 11:38:18;;;;;;;17.77;10.50;;;6.30;99.90;;;;;;6302604;22;20838;-82
2022/11/28 11:40:45;;;;;;;15.03;9.27;;;6.30;99.90;;;;;;6302223;22;20433;-81
2022/11/28 11:43:26;;;;;;;18.00;9.70;;;6.40;99.90;;;;;;6301934;22;20740;-80
2022/11/28 11:46:08;;;;;;;16.30;9.87;;;6.20;99.90;;;;;;6302828;22;20885;-81
2022/11/28 11:48:37;;;;;;;16.43;9.57;;;6.60;99.90;;;;;;6302551;22;20725;-83
2022/11/28 11:51:05;;;;;;;15.20;9.90;;;6.50;99.90;;;;;;6303025;22;20832;-78
2022/11/28 11:53:31;;;;;;;12.40;8.87;;;6.50;99.90;;;;;;6301962;22;20499;-79
2022/11/28 11:56:03;;;;;;;11.37;9.20;;;6.20;99.90;;;;;;6302800;22;20409;-79
2022/11/28 11:58:39;;;;;;;12.97;9.00;;;6.00;99.90;;;;;;6302066;22;20411;-81
2022/11/28 12:01:09;;;;;;;13.17;8.47;;;6.40;99.90;;;;;;6302967;22;20479;-81
2022/11/28 12:03:40;;;;;;;9.27;8.03;;;6.40;99.90;;;;;;6301324;22;20404;-81
2022/11/28 12:06:13;;;;;;;9.77;8.00;;;6.30;99.90;;;;;;6302313;22;20420;-77
2022/11/28 12:08:43;;;;;;;12.20;8.80;;;6.40;99.90;;;;;;6301708;22;20428;-77
2022/11/28 12:11:16;;;;;;;12.53;8.33;;;6.50;99.90;;;;;;6301736;22;20479;-76
2022/11/28 12:13:43;;;;;;;8.97;6.53;;;6.50;99.90;;;;;;6301806;22;20769;-76
2022/11/28 12:16:38;;;;;;;13.53;7.07;;;6.70;99.90;;;;;;6300801;22;20440;-82
2022/11/28 12:19:16;;;;;;;10.60;7.60;;;6.40;99.90;;;;;;6301941;22;20443;-83
2022/11/28 12:22:02;;;;;;;11.53;7.40;;;6.70;99.90;;;;;;6301955;22;20747;-82
2022/11/28 12:24:41;;;;;;;9.97;6.40;;;6.40;99.90;;;;;;6301350;22;20502;-82
2022/11/28 12:27:22;;;;;;;7.93;5.93;;;7.00;99.90;;;;;;6301742;22;20412;-81
2022/11/28 12:29:57;;;;;;;10.13;6.47;;;6.70;99.90;;;;;;6300545;22;20419;-83
2022/11/28 12:32:38;;;;;;;11.23;6.23;;;6.60;99.90;;;;;;6302726;22;20416;-85
2022/11/28 12:38:13;;;;;;;7.07;5.17;;;6.50;99.90;;;;;;6308519;22;20412;-82
2022/11/28 12:40:55;;;;;;;13.17;6.40;;;6.60;99.90;;;;;;6302515;22;20404;-81
2022/11/28 12:43:37;;;;;;;7.80;5.80;;;6.60;99.90;;;;;;6302012;22;20511;-79
2022/11/28 12:46:11;;;;;;;8.17;6.57;;;6.50;99.90;;;;;;6302157;22;20463;-81
2022/11/28 12:48:51;;;;;;;10.40;7.00;;;6.70;99.90;;;;;;6302762;22;20408;-81
2022/11/28 12:51:32;;;;;;;12.03;6.67;;;6.90;99.90;;;;;;6302825;22;20466;-81
2022/11/28 12:54:33;;;;;;;9.03;6.47;;;7.00;99.90;;;;;;6302084;22;20416;-83
2022/11/28 12:57:08;;;;;;;9.50;7.43;;;7.00;99.90;;;;;;6304685;22;21006;-84
2022/11/28 12:59:43;;;;;;;10.43;7.07;;;7.20;99.90;;;;;;6302166;22;20399;-87
2022/11/28 13:02:25;;;;;;;11.50;7.07;;;7.10;99.90;;;;;;6302640;22;20432;-83
2022/11/28 13:05:14;;;;;;;10.17;6.70;;;7.30;99.90;;;;;;6302525;22;20399;-88
2022/11/28 13:07:56;;;;;;;11.30;6.90;;;7.10;99.90;;;;;;6303644;22;20949;-82
2022/11/28 13:10:33;;;;;;;7.03;6.20;;;7.00;99.90;;;;;;6302005;22;20796;-86
2022/11/28 13:13:07;;;;;;;11.23;7.47;;;7.10;99.90;;;;;;6302635;22;20403;-87
2022/11/28 13:15:45;;;;;;;12.73;7.97;;;6.90;99.90;;;;;;6302616;22;20435;-88
2022/11/28 13:18:26;;;;;;;14.93;7.87;;;6.90;99.90;;;;;;6303657;22;20423;-87
2022/11/28 13:21:02;;;;;;;16.00;7.97;;;6.90;99.90;;;;;;6312483;22;20495;-86
2022/11/28 13:23:39;;;;;;;14.50;8.17;;;6.90;99.90;;;;;;6315311;22;20771;-86
2022/11/28 13:26:14;;;;;;;15.13;8.67;;;6.90;99.90;;;;;;6305679;22;20408;-84
2022/11/28 13:28:45;;;;;;;15.77;8.37;;;6.90;99.90;;;;;;6301469;22;20498;-85
2022/11/28 13:31:21;;;;;;;14.47;9.20;;;6.90;99.90;;;;;;6301736;22;20877;-86
2022/11/28 13:33:52;;;;;;;14.40;9.20;;;6.70;99.90;;;;;;6301620;22;20396;-85
2022/11/28 13:36:29;;;;;;;15.57;9.17;;;6.90;99.90;;;;;;6302015;22;20479;-85
2022/11/28 13:39:02;;;;;;;11.17;8.23;;;6.60;99.90;;;;;;6300854;22;20428;-86
2022/11/28 13:41:42;;;;;;;15.47;8.13;;;6.90;99.90;;;;;;6301381;22;20471;-85
2022/11/28 13:44:14;;;;;;;13.93;7.60;;;6.80;99.90;;;;;;6301531;22;20804;-85
2022/11/28 13:46:43;;;;;;;15.60;8.63;;;6.90;99.90;;;;;;6301635;22;20388;-84
2022/11/28 13:52:40;;;;;;;14.00;9.83;;;6.70;99.90;;;;;;6301869;22;20462;-85
2022/11/28 13:55:39;;;;;;;16.93;10.40;;;6.80;99.90;;;;;;6302173;22;20447;-85
2022/11/28 13:58:19;;;;;;;17.13;9.80;;;6.70;99.90;;;;;;6302014;22;20734;-84
2022/11/28 14:01:05;;;;;;;14.03;10.00;;;6.80;99.90;;;;;;6302933;22;20416;-86
2022/11/28 14:03:46;;;;;;;16.20;8.90;;;6.70;99.90;;;;;;6301575;22;20500;-84